Time;durP1;ratioP1;P1;durP2;ratioP2;P2;SDS_P1;SDS_P2;PMS_P1;PMS_P2;Temp;Humidity;BMP_temperature;BMP_pressure;BME280_temperature;BME280_humidity;BME280_pressure;Samples;Min_cycle;Max_cycle;Signal;HPM_P1;HPM_P2
2023/01/28 00:01:11;;;;;;;35.58;12.40;;;-0.30;99.90;;;;;;5044783;28;20427;-63
2023/01/28 00:03:37;;;;;;;37.20;13.20;;;-0.30;99.90;;;;;;5047991;28;20037;-63
2023/01/28 00:06:17;;;;;;;32.90;12.05;;;-0.20;99.90;;;;;;5048522;28;20029;-63
2023/01/28 00:08:43;;;;;;;;;;;-0.20;99.90;;;;;;5049465;28;20041;-63
2023/01/28 00:11:11;;;;;;;31.23;11.57;;;-0.20;99.90;;;;;;5047474;28;19954;-63
2023/01/28 00:13:38;;;;;;;29.13;10.68;;;-0.30;99.90;;;;;;5030834;28;20039;-63
2023/01/28 00:16:07;;;;;;;32.15;11.48;;;-0.20;99.90;;;;;;5054908;28;20021;-63
2023/01/28 00:18:33;;;;;;;28.90;10.80;;;-0.20;99.90;;;;;;5052663;28;20097;-63
2023/01/28 00:21:05;;;;;;;29.35;11.55;;;-0.20;99.90;;;;;;5043834;28;20029;-63
2023/01/28 00:23:32;;;;;;;27.88;10.25;;;-0.20;99.90;;;;;;5038138;28;20049;-63
2023/01/28 00:25:59;;;;;;;34.13;12.55;;;-0.20;99.90;;;;;;5043961;28;20246;-63
2023/01/28 00:28:25;;;;;;;29.63;11.23;;;-0.20;99.90;;;;;;5049428;28;20048;-63
2023/01/28 00:30:51;;;;;;;26.40;10.38;;;-0.10;99.90;;;;;;5036325;28;20032;-63
2023/01/28 00:33:16;;;;;;;30.27;11.75;;;-0.10;99.90;;;;;;5051946;28;20028;-64
2023/01/28 00:35:42;;;;;;;32.35;11.15;;;-0.10;99.90;;;;;;5057366;28;20035;-65
2023/01/28 00:38:09;;;;;;;30.73;10.20;;;-0.10;99.90;;;;;;5052290;28;20236;-63
2023/01/28 00:40:35;;;;;;;30.70;11.52;;;-0.10;99.90;;;;;;5041045;28;20039;-63
2023/01/28 00:43:01;;;;;;;27.05;10.57;;;-0.20;99.90;;;;;;5045597;28;20635;-62
2023/01/28 00:45:26;;;;;;;27.67;10.20;;;-0.20;99.90;;;;;;5054086;28;20217;-63
2023/01/28 00:47:52;;;;;;;28.90;10.85;;;-0.20;99.90;;;;;;5052282;28;20107;-63
2023/01/28 00:50:20;;;;;;;30.17;10.32;;;-0.20;99.90;;;;;;5048428;28;20037;-63
2023/01/28 00:52:46;;;;;;;29.50;10.73;;;-0.20;99.90;;;;;;5046262;28;20162;-62
2023/01/28 00:55:12;;;;;;;29.33;10.50;;;-0.20;99.90;;;;;;5057284;28;20078;-62
2023/01/28 00:57:38;;;;;;;32.67;10.63;;;-0.10;99.90;;;;;;5044139;28;20434;-63
2023/01/28 01:00:05;;;;;;;34.58;10.98;;;-0.20;99.90;;;;;;5028734;28;20073;-64
2023/01/28 01:02:31;;;;;;;29.73;10.40;;;-0.20;99.90;;;;;;5032032;28;20036;-62
2023/01/28 01:05:00;;;;;;;26.90;9.65;;;-0.10;99.90;;;;;;5046368;28;20482;-63
2023/01/28 01:07:50;;;;;;;27.67;9.95;;;-0.10;99.90;;;;;;5050871;28;20075;-63
2023/01/28 01:10:18;;;;;;;25.30;9.73;;;-0.10;99.90;;;;;;5061806;28;20048;-63
2023/01/28 01:12:48;;;;;;;27.98;10.05;;;-0.10;99.90;;;;;;5032971;28;20029;-63
2023/01/28 01:15:16;;;;;;;25.83;9.20;;;0.00;99.90;;;;;;5048841;28;20032;-63
2023/01/28 01:17:45;;;;;;;25.27;8.75;;;-0.10;99.90;;;;;;5051467;28;20029;-63
2023/01/28 01:20:16;;;;;;;23.20;9.27;;;-0.10;99.90;;;;;;5042410;28;20544;-64
2023/01/28 01:22:42;;;;;;;25.25;9.30;;;-0.10;99.90;;;;;;5032046;28;20063;-63
2023/01/28 01:25:08;;;;;;;23.27;9.20;;;-0.10;99.90;;;;;;5046838;28;20068;-63
2023/01/28 01:27:35;;;;;;;28.23;9.45;;;-0.10;99.90;;;;;;5035467;28;20045;-63
2023/01/28 01:30:00;;;;;;;24.52;8.50;;;-0.10;99.90;;;;;;5033812;28;20049;-64
2023/01/28 01:32:33;;;;;;;27.75;9.30;;;-0.10;99.90;;;;;;5048563;28;20062;-63
2023/01/28 01:34:59;;;;;;;21.50;8.32;;;-0.20;99.90;;;;;;5041322;28;20458;-63
2023/01/28 01:37:26;;;;;;;24.67;8.82;;;-0.20;99.90;;;;;;5048250;28;20040;-62
2023/01/28 01:39:51;;;;;;;26.02;8.75;;;-0.20;99.90;;;;;;5048216;28;20139;-63
2023/01/28 01:42:17;;;;;;;23.90;8.57;;;-0.20;99.90;;;;;;5062429;28;20116;-63
2023/01/28 01:45:06;;;;;;;25.05;8.95;;;-0.20;99.90;;;;;;5057458;28;20111;-63
2023/01/28 01:47:59;;;;;;;25.25;9.32;;;-0.10;99.90;;;;;;5062009;28;20040;-63
2023/01/28 01:50:41;;;;;;;23.17;9.02;;;-0.10;99.90;;;;;;5048482;28;20114;-63
2023/01/28 01:53:14;;;;;;;23.63;9.02;;;-0.20;99.90;;;;;;5031711;28;20049;-62
2023/01/28 01:55:44;;;;;;;23.23;9.38;;;-0.10;99.90;;;;;;5028508;28;20030;-63
2023/01/28 01:58:14;;;;;;;24.52;9.45;;;-0.20;99.90;;;;;;5043391;28;20136;-63
2023/01/28 02:00:41;;;;;;;24.80;9.40;;;-0.30;99.90;;;;;;5037194;28;20445;-63
2023/01/28 02:03:09;;;;;;;25.40;9.13;;;-0.20;99.90;;;;;;5048655;28;20039;-62
2023/01/28 02:05:35;;;;;;;21.25;8.52;;;-0.20;99.90;;;;;;5052094;28;20112;-63
2023/01/28 02:08:20;;;;;;;25.27;9.05;;;-0.20;99.90;;;;;;5054948;28;20083;-63
2023/01/28 02:11:01;;;;;;;22.88;8.32;;;-0.20;99.90;;;;;;5064028;28;20032;-61
2023/01/28 02:13:32;;;;;;;24.40;8.68;;;-0.30;99.90;;;;;;5070898;28;20367;-63
2023/01/28 02:16:00;;;;;;;26.67;9.27;;;-0.30;99.90;;;;;;5070012;28;20025;-62
2023/01/28 02:18:25;;;;;;;29.83;9.55;;;-0.30;99.90;;;;;;5040211;28;20033;-63
2023/01/28 02:21:00;;;;;;;26.50;9.73;;;-0.30;99.90;;;;;;5051973;28;20087;-63
2023/01/28 02:24:07;;;;;;;25.70;8.90;;;-0.20;99.90;;;;;;5054584;28;20033;-63
2023/01/28 02:26:36;;;;;;;26.35;9.05;;;-0.20;99.90;;;;;;5053416;28;20041;-63
2023/01/28 02:29:13;;;;;;;27.60;9.77;;;-0.20;99.90;;;;;;5031416;28;20044;-63
2023/01/28 02:31:53;;;;;;;24.02;8.88;;;-0.10;99.90;;;;;;5049243;28;20039;-63
2023/01/28 02:34:34;;;;;;;26.30;9.50;;;-0.20;99.90;;;;;;5052764;28;20259;-63
2023/01/28 02:37:33;;;;;;;27.23;9.52;;;-0.10;99.90;;;;;;5034945;28;20074;-63
2023/01/28 02:40:03;;;;;;;24.17;8.55;;;-0.10;99.90;;;;;;5040632;28;20194;-63
2023/01/28 02:42:33;;;;;;;24.63;8.57;;;-0.10;99.90;;;;;;5051883;28;20039;-63
2023/01/28 02:44:58;;;;;;;20.43;8.27;;;-0.20;99.90;;;;;;5048874;28;20029;-63
2023/01/28 02:50:12;;;;;;;23.75;8.82;;;-0.20;99.90;;;;;;5057605;28;20700;-63
2023/01/28 02:55:52;;;;;;;22.17;8.07;;;-0.20;99.90;;;;;;5064159;28;20436;-63
2023/01/28 02:58:31;;;;;;;25.00;9.00;;;-0.20;99.90;;;;;;5040656;28;20029;-64
2023/01/28 03:01:27;;;;;;;25.83;8.80;;;-0.30;99.90;;;;;;5047286;28;20615;-63
2023/01/28 03:04:10;;;;;;;24.40;9.43;;;-0.30;99.90;;;;;;5030649;28;20033;-62
2023/01/28 03:06:40;;;;;;;23.73;8.75;;;-0.30;99.90;;;;;;5036863;28;20036;-63
2023/01/28 03:09:21;;;;;;;27.45;9.95;;;-0.20;99.90;;;;;;5049839;28;20037;-63
2023/01/28 03:37:36;;;;;;;24.63;8.38;;;-0.10;99.90;;;;;;5049093;28;20044;-64
2023/01/28 03:40:05;;;;;;;23.05;8.82;;;-0.10;99.90;;;;;;5069125;28;20115;-64
2023/01/28 03:42:31;;;;;;;23.23;9.32;;;-0.20;99.90;;;;;;5063350;28;20484;-63
2023/01/28 03:44:57;;;;;;;25.20;9.07;;;-0.20;99.90;;;;;;5047530;28;20067;-63
2023/01/28 03:47:28;;;;;;;23.80;8.95;;;-0.20;99.90;;;;;;5054730;28;20043;-63
2023/01/28 03:49:55;;;;;;;24.20;8.63;;;-0.20;99.90;;;;;;5069714;28;20128;-63
2023/01/28 03:52:27;;;;;;;21.20;8.48;;;-0.20;99.90;;;;;;5068425;28;20112;-63
2023/01/28 03:54:53;;;;;;;24.33;9.05;;;-0.10;99.90;;;;;;5069979;28;20029;-63
2023/01/28 03:57:25;;;;;;;22.20;8.25;;;-0.10;99.90;;;;;;5037013;28;20083;-63
2023/01/28 03:59:51;;;;;;;24.10;9.27;;;-0.10;99.90;;;;;;5035040;28;20039;-63
2023/01/28 04:02:18;;;;;;;22.40;9.30;;;-0.10;99.90;;;;;;5031245;28;20076;-63
2023/01/28 04:04:44;;;;;;;25.13;9.32;;;-0.10;99.90;;;;;;5068577;28;20032;-63
2023/01/28 04:07:13;;;;;;;24.40;9.27;;;-0.20;99.90;;;;;;5050700;28;20478;-63
2023/01/28 04:09:39;;;;;;;25.00;8.85;;;-0.10;99.90;;;;;;5050730;28;20057;-63
2023/01/28 04:12:05;;;;;;;24.55;8.95;;;-0.20;99.90;;;;;;5047799;28;20024;-63
2023/01/28 04:14:31;;;;;;;26.60;9.57;;;-0.20;99.90;;;;;;5059274;28;20025;-62
2023/01/28 04:16:57;;;;;;;23.75;9.32;;;-0.20;99.90;;;;;;5037488;28;20034;-63
2023/01/28 04:19:23;;;;;;;23.38;8.75;;;-0.20;99.90;;;;;;5049737;28;20044;-63
2023/01/28 04:21:52;;;;;;;22.88;9.25;;;-0.10;99.90;;;;;;5052173;28;20041;-64
2023/01/28 04:24:19;;;;;;;23.17;9.05;;;-0.20;99.90;;;;;;5061298;28;20063;-63
2023/01/28 04:26:44;;;;;;;21.23;8.65;;;-0.10;99.90;;;;;;5069325;28;20029;-63
2023/01/28 04:29:10;;;;;;;26.05;9.05;;;-0.10;99.90;;;;;;5055420;28;20045;-63
2023/01/28 04:31:36;;;;;;;22.20;8.63;;;-0.10;99.90;;;;;;5046361;28;20036;-63
2023/01/28 04:34:01;;;;;;;22.73;9.13;;;-0.10;99.90;;;;;;5031775;28;20048;-63
2023/01/28 04:36:27;;;;;;;31.75;10.18;;;-0.10;99.90;;;;;;5039199;28;20488;-63
2023/01/28 04:38:52;;;;;;;23.10;9.40;;;0.00;99.90;;;;;;5049423;28;20028;-63
2023/01/28 04:41:19;;;;;;;23.98;9.05;;;0.00;99.90;;;;;;5046906;28;20216;-63
2023/01/28 04:43:44;;;;;;;22.75;9.25;;;0.00;99.90;;;;;;5056962;28;20034;-62
2023/01/28 04:46:10;;;;;;;26.92;9.68;;;0.00;99.90;;;;;;5045242;28;20062;-63
2023/01/28 04:48:36;;;;;;;23.55;8.85;;;0.10;99.90;;;;;;5047707;28;20064;-63
2023/01/28 04:51:03;;;;;;;22.63;8.63;;;0.10;99.90;;;;;;5046649;28;20033;-63
2023/01/28 04:53:29;;;;;;;27.20;9.82;;;0.10;99.90;;;;;;5049018;28;20099;-63
2023/01/28 04:55:55;;;;;;;24.48;9.90;;;0.10;99.90;;;;;;5048340;28;20075;-63
2023/01/28 04:58:21;;;;;;;26.80;9.25;;;0.10;99.90;;;;;;5029033;28;20072;-63
2023/01/28 05:00:50;;;;;;;23.33;8.80;;;0.00;99.90;;;;;;5045898;28;20416;-63
2023/01/28 05:03:16;;;;;;;22.92;8.45;;;0.00;99.90;;;;;;5059693;28;20205;-63
2023/01/28 05:05:41;;;;;;;22.38;9.15;;;0.00;99.90;;;;;;5040020;28;20501;-63
2023/01/28 05:08:08;;;;;;;23.17;9.68;;;-0.10;99.90;;;;;;5048389;28;20103;-63
2023/01/28 05:10:33;;;;;;;25.08;9.57;;;-0.10;99.90;;;;;;5028883;28;20429;-64
2023/01/28 05:12:59;;;;;;;27.25;8.77;;;0.00;99.90;;;;;;5063267;28;20028;-63
2023/01/28 05:15:25;;;;;;;24.65;8.95;;;-0.10;99.90;;;;;;5046471;28;20058;-63
2023/01/28 05:17:53;;;;;;;25.63;9.32;;;0.00;99.90;;;;;;5030314;28;20382;-63
2023/01/28 05:20:19;;;;;;;23.98;9.25;;;0.00;99.90;;;;;;5035083;28;20098;-64
2023/01/28 05:22:45;;;;;;;24.58;9.05;;;0.00;99.90;;;;;;5046727;28;20037;-63
2023/01/28 05:25:10;;;;;;;22.85;9.05;;;0.10;99.90;;;;;;5047975;28;20021;-63
2023/01/28 05:27:36;;;;;;;25.88;9.68;;;0.10;99.90;;;;;;5046472;28;20076;-63
2023/01/28 05:30:02;;;;;;;24.38;9.05;;;0.10;99.90;;;;;;5043713;28;20045;-62
2023/01/28 05:32:27;;;;;;;22.08;8.10;;;0.00;99.90;;;;;;5041355;28;20447;-64
2023/01/28 05:34:53;;;;;;;25.27;9.30;;;0.00;99.90;;;;;;5032971;28;20040;-63
2023/01/28 05:37:19;;;;;;;21.33;8.68;;;0.00;99.90;;;;;;5052040;28;20592;-63
2023/01/28 05:39:44;;;;;;;24.23;8.77;;;0.00;99.90;;;;;;5042755;28;20033;-63
2023/01/28 05:42:10;;;;;;;26.75;8.98;;;0.00;99.90;;;;;;5040824;28;20149;-62
2023/01/28 05:44:36;;;;;;;23.40;9.57;;;0.00;99.90;;;;;;5044842;28;20109;-63
2023/01/28 05:47:02;;;;;;;20.05;8.25;;;0.10;99.90;;;;;;5047443;28;20037;-63
2023/01/28 05:49:28;;;;;;;24.17;9.48;;;0.10;99.90;;;;;;5048202;28;20037;-62
2023/01/28 05:51:54;;;;;;;23.52;9.52;;;0.10;99.90;;;;;;5048407;28;20509;-66
2023/01/28 05:54:21;;;;;;;24.92;9.68;;;0.10;99.90;;;;;;5052919;28;20016;-63
2023/01/28 05:56:46;;;;;;;27.42;9.82;;;0.10;99.90;;;;;;5049143;28;20033;-63
2023/01/28 05:59:12;;;;;;;29.08;10.07;;;0.10;99.90;;;;;;5037830;28;20405;-63
2023/01/28 06:01:38;;;;;;;25.60;9.70;;;0.10;99.90;;;;;;5035306;28;20029;-63
2023/01/28 06:04:04;;;;;;;27.77;10.35;;;0.10;99.90;;;;;;5037676;28;20104;-63
2023/01/28 06:06:30;;;;;;;26.25;10.23;;;0.10;99.90;;;;;;5048341;28;20558;-63
2023/01/28 06:08:56;;;;;;;27.23;9.85;;;0.20;99.90;;;;;;5048397;28;20056;-63
2023/01/28 06:11:21;;;;;;;27.25;9.98;;;0.20;99.90;;;;;;5048529;28;20048;-63
2023/01/28 06:13:47;;;;;;;25.52;9.82;;;0.20;99.90;;;;;;5047725;28;20413;-64
2023/01/28 06:16:12;;;;;;;25.40;10.20;;;0.30;99.90;;;;;;5047273;28;20021;-62
2023/01/28 06:18:40;;;;;;;28.85;10.75;;;0.20;99.90;;;;;;5038531;28;20037;-63
2023/01/28 06:21:06;;;;;;;28.80;10.63;;;0.20;99.90;;;;;;5038846;28;20099;-63
2023/01/28 06:23:32;;;;;;;25.63;10.50;;;0.10;99.90;;;;;;5048238;28;20699;-63
2023/01/28 06:25:57;;;;;;;28.48;11.65;;;0.10;99.90;;;;;;5047261;28;20033;-61
2023/01/28 06:28:24;;;;;;;32.40;12.10;;;0.20;99.90;;;;;;5047576;28;20045;-61
2023/01/28 06:30:51;;;;;;;28.30;11.48;;;0.20;99.90;;;;;;5039411;28;20041;-63
2023/01/28 06:33:18;;;;;;;30.30;11.18;;;0.20;99.90;;;;;;5047148;28;20377;-63
2023/01/28 06:35:44;;;;;;;29.48;10.63;;;0.10;99.90;;;;;;5047923;28;20021;-62
2023/01/28 06:38:10;;;;;;;27.05;11.13;;;0.20;99.90;;;;;;5046486;28;20580;-63
2023/01/28 06:40:36;;;;;;;27.17;10.50;;;0.10;99.90;;;;;;5050532;28;20477;-63
2023/01/28 06:43:03;;;;;;;31.10;11.75;;;0.10;99.90;;;;;;5052556;28;20039;-64
2023/01/28 06:45:29;;;;;;;34.08;13.50;;;0.20;99.90;;;;;;5046330;28;20116;-63
2023/01/28 06:47:55;;;;;;;28.98;11.43;;;0.20;99.90;;;;;;5040279;28;20025;-62
2023/01/28 06:50:21;;;;;;;29.83;11.63;;;0.20;99.90;;;;;;5046443;28;20704;-63
2023/01/28 06:52:46;;;;;;;27.92;11.13;;;0.20;99.90;;;;;;5051771;28;20142;-63
2023/01/28 06:55:12;;;;;;;31.63;12.13;;;0.20;99.90;;;;;;5050797;28;20056;-64
2023/01/28 06:57:38;;;;;;;29.45;11.35;;;0.20;99.90;;;;;;5051375;28;20029;-63
2023/01/28 07:00:07;;;;;;;28.38;10.90;;;0.10;99.90;;;;;;5050741;28;20479;-63
2023/01/28 07:02:32;;;;;;;27.23;11.27;;;0.10;99.90;;;;;;5043318;28;20367;-63
2023/01/28 07:04:58;;;;;;;31.45;12.10;;;0.10;99.90;;;;;;5033044;28;20040;-64
2023/01/28 07:07:24;;;;;;;35.67;12.98;;;0.10;99.90;;;;;;5049420;28;20659;-63
2023/01/28 07:09:49;;;;;;;40.45;14.20;;;0.10;99.90;;;;;;5051158;28;20041;-62
2023/01/28 07:12:15;;;;;;;32.38;13.48;;;0.10;99.90;;;;;;5048078;28;20033;-63
2023/01/28 07:14:40;;;;;;;36.53;14.32;;;0.10;99.90;;;;;;5050589;28;20051;-63
2023/01/28 07:17:06;;;;;;;36.58;13.55;;;0.10;99.90;;;;;;5046297;28;20482;-64
2023/01/28 07:19:32;;;;;;;32.90;11.73;;;0.10;99.90;;;;;;5051028;28;20048;-63
2023/01/28 07:21:59;;;;;;;31.25;11.90;;;0.10;99.90;;;;;;5051494;28;20029;-63
2023/01/28 07:24:25;;;;;;;33.67;12.48;;;0.00;99.90;;;;;;5042737;28;20021;-63
2023/01/28 07:26:51;;;;;;;35.65;12.73;;;0.00;99.90;;;;;;5042107;28;20049;-62
2023/01/28 07:29:17;;;;;;;35.15;12.40;;;0.10;99.90;;;;;;5049930;28;20037;-63
2023/01/28 07:31:42;;;;;;;32.60;12.85;;;0.00;99.90;;;;;;5057220;28;20650;-64
2023/01/28 07:34:08;;;;;;;41.80;14.95;;;0.10;99.90;;;;;;5048738;28;20036;-64
2023/01/28 07:36:34;;;;;;;41.08;14.25;;;0.10;99.90;;;;;;5062652;28;20367;-62
2023/01/28 07:38:59;;;;;;;38.05;13.95;;;0.10;99.90;;;;;;5051163;28;20035;-63
2023/01/28 07:41:26;;;;;;;40.38;15.40;;;0.20;99.90;;;;;;5049766;28;20136;-63
2023/01/28 07:43:52;;;;;;;34.70;14.35;;;0.10;99.90;;;;;;5046530;28;20390;-63
2023/01/28 07:46:18;;;;;;;33.95;12.48;;;0.20;99.90;;;;;;5052325;28;20035;-63
2023/01/28 07:48:44;;;;;;;33.10;12.65;;;0.20;99.90;;;;;;5045245;28;20588;-63
2023/01/28 07:51:10;;;;;;;41.40;13.85;;;0.20;99.90;;;;;;5047096;28;20029;-64
2023/01/28 07:53:36;;;;;;;33.67;12.85;;;0.20;99.90;;;;;;5050285;28;20021;-64
2023/01/28 07:56:02;;;;;;;35.72;14.30;;;0.20;99.90;;;;;;5054803;28;20435;-64
2023/01/28 07:58:28;;;;;;;41.88;14.65;;;0.30;99.90;;;;;;5068052;28;20033;-64
2023/01/28 08:01:00;;;;;;;40.97;14.77;;;0.20;99.90;;;;;;5059970;28;20060;-63
2023/01/28 08:03:26;;;;;;;44.53;17.48;;;0.30;99.90;;;;;;5049226;28;20094;-64
2023/01/28 08:05:54;;;;;;;44.90;18.35;;;0.20;99.90;;;;;;5051698;28;20669;-64
2023/01/28 08:08:20;;;;;;;42.13;17.48;;;0.30;99.90;;;;;;5048609;28;20166;-64
2023/01/28 08:10:46;;;;;;;38.78;15.00;;;0.30;99.90;;;;;;5068494;28;20028;-64
2023/01/28 08:13:13;;;;;;;37.35;14.50;;;0.30;99.90;;;;;;5067803;28;20086;-64
2023/01/28 08:15:39;;;;;;;41.78;14.75;;;0.40;99.90;;;;;;5063700;28;20039;-63
2023/01/28 08:18:08;;;;;;;36.35;14.77;;;0.40;99.90;;;;;;5054328;28;20441;-64
2023/01/28 08:20:33;;;;;;;35.28;13.35;;;0.40;99.90;;;;;;5061460;28;20036;-64
2023/01/28 08:23:05;;;;;;;37.70;14.55;;;0.40;99.90;;;;;;5049261;28;20106;-64
2023/01/28 08:25:31;;;;;;;36.60;13.68;;;0.50;99.90;;;;;;5046739;28;20036;-64
2023/01/28 08:27:57;;;;;;;42.03;15.25;;;0.50;99.90;;;;;;5049652;28;20144;-63
2023/01/28 08:30:23;;;;;;;35.40;13.90;;;0.50;99.90;;;;;;5047793;28;20135;-64
2023/01/28 08:32:48;;;;;;;37.55;14.30;;;0.50;99.90;;;;;;5049269;28;20029;-64
2023/01/28 08:35:14;;;;;;;34.03;12.57;;;0.50;99.90;;;;;;5044367;28;20091;-63
2023/01/28 08:37:40;;;;;;;40.10;14.23;;;0.50;99.90;;;;;;5047290;28;20064;-64
2023/01/28 08:40:06;;;;;;;40.83;14.70;;;0.50;99.90;;;;;;5042397;28;20457;-64
2023/01/28 08:42:31;;;;;;;71.28;22.73;;;0.50;99.90;;;;;;5045619;28;20037;-64
2023/01/28 08:44:57;;;;;;;43.85;15.98;;;0.50;99.90;;;;;;5052054;28;20111;-63
2023/01/28 08:47:24;;;;;;;47.38;15.23;;;0.40;99.90;;;;;;5068595;28;20067;-63
2023/01/28 08:49:49;;;;;;;52.10;18.52;;;0.40;99.90;;;;;;5069296;28;20060;-64
2023/01/28 08:52:15;;;;;;;46.33;16.20;;;0.40;99.90;;;;;;5058784;28;20530;-64
2023/01/28 08:54:40;;;;;;;43.55;16.08;;;0.50;99.90;;;;;;5049040;28;20029;-64
2023/01/28 08:57:06;;;;;;;58.30;20.35;;;0.50;99.90;;;;;;5047090;28;20040;-63
2023/01/28 08:59:32;;;;;;;45.33;15.70;;;0.60;99.90;;;;;;5048017;28;20140;-64
2023/01/28 09:01:57;;;;;;;48.83;16.92;;;0.60;99.90;;;;;;5044883;28;20037;-63
2023/01/28 09:04:23;;;;;;;43.47;16.13;;;0.50;99.90;;;;;;5029674;28;20040;-64
2023/01/28 09:06:49;;;;;;;42.05;14.52;;;0.60;99.90;;;;;;5046180;28;20119;-63
2023/01/28 09:09:14;;;;;;;45.38;16.95;;;0.50;99.90;;;;;;5046765;28;20098;-64
2023/01/28 09:11:40;;;;;;;41.28;15.13;;;0.50;99.90;;;;;;5048153;28;20488;-62
2023/01/28 09:14:06;;;;;;;45.67;16.48;;;0.50;99.90;;;;;;5048864;28;20036;-64
2023/01/28 09:16:31;;;;;;;48.35;17.10;;;0.50;99.90;;;;;;5046910;28;20033;-64
2023/01/28 09:18:57;;;;;;;43.45;16.45;;;0.60;99.90;;;;;;5048634;28;20029;-63
2023/01/28 09:21:23;;;;;;;45.25;16.33;;;0.60;99.90;;;;;;5047851;28;20032;-63
2023/01/28 09:23:48;;;;;;;48.72;16.70;;;0.60;99.90;;;;;;5047317;28;20061;-63
2023/01/28 09:26:15;;;;;;;50.13;17.45;;;0.60;99.90;;;;;;5047981;28;20108;-64
2023/01/28 09:28:40;;;;;;;46.80;15.70;;;0.60;99.90;;;;;;5048145;28;20053;-64
2023/01/28 09:31:10;;;;;;;42.40;15.50;;;0.60;99.90;;;;;;5047493;28;20060;-63
2023/01/28 09:33:38;;;;;;;43.85;14.93;;;0.60;99.90;;;;;;5047005;28;20389;-64
2023/01/28 09:36:05;;;;;;;40.55;15.35;;;0.60;99.90;;;;;;5048681;28;20025;-64
2023/01/28 09:38:31;;;;;;;48.50;17.00;;;0.60;99.90;;;;;;5047600;28;21002;-63
2023/01/28 09:40:57;;;;;;;49.10;17.10;;;0.60;99.90;;;;;;5048374;28;20028;-64
2023/01/28 09:43:58;;;;;;;60.17;24.23;;;0.60;99.90;;;;;;5047704;28;20033;-64
2023/01/28 09:46:32;;;;;;;55.55;20.05;;;0.70;99.90;;;;;;5045988;28;20517;-63
2023/01/28 09:49:00;;;;;;;45.55;16.77;;;0.60;99.90;;;;;;5048664;28;20090;-63
2023/01/28 09:51:32;;;;;;;48.47;18.25;;;0.60;99.90;;;;;;5047891;28;20124;-63
2023/01/28 09:54:03;;;;;;;56.97;24.17;;;0.60;99.90;;;;;;5048263;28;20131;-63
2023/01/28 09:56:36;;;;;;;60.88;21.50;;;0.70;99.90;;;;;;5047475;28;20051;-63
2023/01/28 09:59:18;;;;;;;54.03;20.70;;;0.70;99.90;;;;;;5048595;28;20066;-63
2023/01/28 10:02:28;;;;;;;53.78;20.20;;;0.70;99.90;;;;;;5047303;28;20466;-63
2023/01/28 10:04:58;;;;;;;39.17;17.85;;;0.70;99.90;;;;;;5039479;28;20034;-63
2023/01/28 10:07:42;;;;;;;;;;;0.70;99.90;;;;;;5044571;28;20539;-62
2023/01/28 10:10:12;;;;;;;53.50;18.58;;;0.70;99.90;;;;;;5036454;28;20258;-64
2023/01/28 10:13:06;;;;;;;68.97;24.92;;;0.60;99.90;;;;;;5042084;28;20082;-63
2023/01/28 10:15:52;;;;;;;50.20;17.33;;;0.70;99.90;;;;;;5045997;28;20656;-63
2023/01/28 10:18:28;;;;;;;53.85;18.08;;;0.70;99.90;;;;;;5037490;28;20479;-63
2023/01/28 10:21:01;;;;;;;50.03;17.45;;;0.60;99.90;;;;;;5028354;28;20032;-63
2023/01/28 10:23:40;;;;;;;70.53;23.70;;;0.60;99.90;;;;;;5045501;28;20061;-63
2023/01/28 10:26:21;;;;;;;53.80;17.17;;;0.60;99.90;;;;;;5037726;28;20030;-64
2023/01/28 10:28:53;;;;;;;52.42;17.90;;;0.60;99.90;;;;;;5048818;28;20702;-63
2023/01/28 10:31:20;;;;;;;49.45;17.20;;;0.60;99.90;;;;;;5041196;28;20044;-63
2023/01/28 10:33:45;;;;;;;49.83;17.48;;;0.70;99.90;;;;;;5053386;28;20538;-64
2023/01/28 10:36:11;;;;;;;50.85;17.05;;;0.70;99.90;;;;;;5047375;28;20032;-63
2023/01/28 10:38:37;;;;;;;53.03;18.25;;;0.70;99.90;;;;;;5050751;28;20075;-64
2023/01/28 10:41:04;;;;;;;62.67;20.20;;;0.70;99.90;;;;;;5059833;28;20029;-64
2023/01/28 10:43:33;;;;;;;58.08;19.90;;;0.60;99.90;;;;;;5046371;28;20775;-63
2023/01/28 10:46:36;;;;;;;59.95;19.83;;;0.60;99.90;;;;;;5057767;28;20028;-63
2023/01/28 10:49:20;;;;;;;53.80;17.80;;;0.70;99.90;;;;;;5050901;28;20041;-63
2023/01/28 10:51:46;;;;;;;54.47;18.13;;;0.70;99.90;;;;;;5049703;28;20094;-63
2023/01/28 10:54:28;;;;;;;56.67;19.17;;;0.70;99.90;;;;;;5031677;28;20037;-62
2023/01/28 10:57:02;;;;;;;61.33;21.73;;;0.70;99.90;;;;;;5048212;28;20033;-63
2023/01/28 10:59:29;;;;;;;55.50;18.88;;;0.70;99.90;;;;;;5054639;28;20116;-63
2023/01/28 11:02:02;;;;;;;55.50;19.05;;;0.80;99.90;;;;;;5049170;28;20033;-63
2023/01/28 11:04:31;;;;;;;59.45;17.88;;;0.80;99.90;;;;;;5048270;28;20036;-63
2023/01/28 11:07:20;;;;;;;55.53;18.67;;;0.80;99.90;;;;;;5049238;28;20021;-63
2023/01/28 11:09:48;;;;;;;63.58;20.05;;;0.90;99.90;;;;;;5047778;28;20042;-63
2023/01/28 11:12:21;;;;;;;57.03;19.10;;;0.90;99.90;;;;;;5048409;28;20466;-63
2023/01/28 11:14:55;;;;;;;56.03;18.90;;;1.00;99.90;;;;;;5050046;28;20029;-64
2023/01/28 11:17:24;;;;;;;48.85;16.88;;;1.10;99.90;;;;;;5054277;28;20025;-64
2023/01/28 11:19:52;;;;;;;62.15;20.52;;;1.10;99.90;;;;;;5063487;28;20159;-63
2023/01/28 11:22:39;;;;;;;49.53;18.50;;;1.10;99.90;;;;;;5062396;28;20029;-63
2023/01/28 11:25:17;;;;;;;46.30;16.33;;;1.00;99.90;;;;;;5043147;28;20020;-63
2023/01/28 11:27:50;;;;;;;69.03;21.30;;;1.10;99.90;;;;;;5038298;28;20102;-63
2023/01/28 11:30:32;;;;;;;49.80;18.17;;;1.10;99.90;;;;;;5049763;28;20041;-64
2023/01/28 11:33:17;;;;;;;49.63;18.55;;;1.10;99.90;;;;;;5047532;28;20120;-64
2023/01/28 11:35:56;;;;;;;47.15;16.65;;;1.30;99.90;;;;;;5046649;28;20445;-64
2023/01/28 11:38:24;;;;;;;42.22;16.00;;;1.30;99.90;;;;;;5040253;28;20029;-63
2023/01/28 11:40:55;;;;;;;49.95;17.33;;;1.30;99.90;;;;;;5030575;28;20036;-64
2023/01/28 11:43:23;;;;;;;49.72;17.00;;;1.30;99.90;;;;;;5040990;28;20566;-64
2023/01/28 11:46:12;;;;;;;41.80;15.98;;;1.30;99.90;;;;;;5056497;28;20108;-64
2023/01/28 11:48:49;;;;;;;45.97;16.10;;;1.20;99.90;;;;;;5018048;28;20603;-64
2023/01/28 11:51:20;;;;;;;49.15;16.17;;;1.10;99.90;;;;;;5032510;28;20029;-64
2023/01/28 11:54:03;;;;;;;45.53;16.25;;;1.20;99.90;;;;;;5049999;28;20025;-64
2023/01/28 11:56:47;;;;;;;46.03;15.38;;;1.20;99.90;;;;;;5046373;28;20030;-64
2023/01/28 11:59:43;;;;;;;46.90;16.20;;;1.20;99.90;;;;;;5047935;28;20060;-62
2023/01/28 12:02:23;;;;;;;42.53;15.10;;;1.20;99.90;;;;;;5050488;28;20025;-64
2023/01/28 12:05:15;;;;;;;45.70;15.40;;;1.30;99.90;;;;;;5045370;28;20063;-64
2023/01/28 12:08:07;;;;;;;40.05;14.50;;;1.30;99.90;;;;;;5042891;28;20048;-64
2023/01/28 12:10:44;;;;;;;37.83;13.88;;;1.30;99.90;;;;;;5041704;28;20051;-64
2023/01/28 12:13:21;;;;;;;47.17;15.65;;;1.40;99.90;;;;;;5055892;28;20806;-63
2023/01/28 12:16:31;;;;;;;35.03;14.32;;;1.40;99.90;;;;;;5048760;28;20032;-63
2023/01/28 12:19:19;;;;;;;41.37;14.63;;;1.50;99.90;;;;;;5036402;28;20033;-63
2023/01/28 12:22:06;;;;;;;45.20;15.05;;;1.60;99.90;;;;;;5037949;28;20025;-63
2023/01/28 12:24:40;;;;;;;43.80;14.07;;;1.60;99.90;;;;;;5052471;28;20040;-63
2023/01/28 12:27:27;;;;;;;52.33;17.00;;;1.60;99.90;;;;;;5061382;28;20621;-63
2023/01/28 12:30:07;;;;;;;54.53;17.55;;;1.50;99.90;;;;;;5064371;28;20033;-63
2023/01/28 12:33:11;;;;;;;58.28;18.52;;;1.50;99.90;;;;;;5039619;28;21499;-64
2023/01/28 12:35:51;;;;;;;44.00;15.82;;;1.50;99.90;;;;;;5077209;28;20059;-63
2023/01/28 12:38:29;;;;;;;49.30;16.05;;;1.50;99.90;;;;;;5049194;28;20032;-63
2023/01/28 12:41:17;;;;;;;53.60;18.10;;;1.60;99.90;;;;;;5052274;28;20035;-63
2023/01/28 12:43:49;;;;;;;48.22;16.45;;;1.60;99.90;;;;;;5055726;28;20039;-63
2023/01/28 12:46:36;;;;;;;45.03;14.65;;;1.60;99.90;;;;;;5057418;28;20025;-62
2023/01/28 12:49:02;;;;;;;39.88;14.00;;;1.60;99.90;;;;;;5069241;28;20032;-63
2023/01/28 12:51:37;;;;;;;31.85;11.68;;;1.70;99.90;;;;;;5068418;28;20032;-64
2023/01/28 12:54:17;;;;;;;29.60;10.18;;;1.70;99.90;;;;;;5069024;28;20055;-64
2023/01/28 12:56:49;;;;;;;28.67;10.32;;;1.70;99.90;;;;;;5061062;28;20041;-64
2023/01/28 12:59:20;;;;;;;27.20;8.98;;;1.80;99.90;;;;;;5048968;28;20072;-63
2023/01/28 13:02:15;;;;;;;26.50;9.85;;;1.70;99.90;;;;;;5045936;28;21088;-63
2023/01/28 13:05:00;;;;;;;25.33;8.90;;;1.60;99.90;;;;;;5028337;28;20038;-64
2023/01/28 13:07:54;;;;;;;23.38;8.88;;;1.60;99.90;;;;;;5028395;28;20033;-64
2023/01/28 13:10:42;;;;;;;22.33;8.95;;;1.70;99.90;;;;;;5038187;28;20036;-64
2023/01/28 13:13:34;;;;;;;25.75;9.25;;;1.70;99.90;;;;;;5049734;28;20033;-62
2023/01/28 13:16:02;;;;;;;22.90;8.60;;;1.50;99.90;;;;;;5054282;28;20110;-63
2023/01/28 13:18:32;;;;;;;26.58;9.70;;;1.60;99.90;;;;;;5050270;28;20033;-63
2023/01/28 13:21:04;;;;;;;26.63;9.57;;;1.60;99.90;;;;;;5040557;28;20057;-64
2023/01/28 13:23:30;;;;;;;24.38;9.43;;;1.60;99.90;;;;;;5048751;28;20447;-64
2023/01/28 13:26:27;;;;;;;24.23;9.43;;;1.60;99.90;;;;;;5044732;28;20037;-64
2023/01/28 13:29:08;;;;;;;26.08;9.18;;;1.60;99.90;;;;;;5061121;28;20094;-63